createdAt,value
2022-08-20T00:01:19.339Z,2.35
2022-08-20T00:03:53.167Z,2.13
2022-08-20T00:06:24.919Z,2.03
2022-08-20T00:08:53.148Z,2.10
2022-08-20T00:11:25.275Z,2.00
2022-08-20T00:13:56.875Z,2.00
2022-08-20T00:16:26.873Z,2.10
2022-08-20T00:18:55.175Z,2.00
2022-08-20T00:21:25.530Z,1.63
2022-08-20T00:23:56.111Z,1.50
2022-08-20T00:26:25.389Z,1.65
2022-08-20T00:28:54.077Z,2.03
2022-08-20T00:31:24.739Z,1.52
2022-08-20T00:33:52.728Z,1.90
2022-08-20T00:36:21.277Z,1.58
2022-08-20T00:38:50.555Z,1.60
2022-08-20T00:41:22.982Z,1.70
2022-08-20T00:43:53.645Z,1.60
2022-08-20T00:46:27.907Z,1.52
2022-08-20T00:48:59.596Z,1.35
2022-08-20T00:51:34.451Z,1.42
2022-08-20T00:54:10.826Z,1.55
2022-08-20T00:56:40.751Z,1.50
2022-08-20T00:59:13.312Z,1.85
2022-08-20T01:01:54.944Z,1.20
2022-08-20T01:04:26.636Z,1.60
2022-08-20T01:06:55.406Z,1.50
2022-08-20T01:09:50.094Z,1.40
2022-08-20T01:12:14.828Z,1.45
2022-08-20T01:14:45.909Z,1.50
2022-08-20T01:17:18.134Z,1.67
2022-08-20T01:19:52.550Z,1.20
2022-08-20T01:22:49.189Z,1.40
2022-08-20T01:25:23.968Z,1.33
2022-08-20T01:27:55.459Z,1.20
2022-08-20T01:30:27.354Z,1.30
2022-08-20T01:32:55.509Z,1.30
2022-08-20T01:35:24.956Z,1.30
2022-08-20T01:37:53.222Z,1.30
2022-08-20T01:40:40.798Z,1.50
2022-08-20T01:43:10.032Z,1.30
2022-08-20T01:45:40.011Z,1.50
2022-08-20T01:48:08.815Z,1.30
2022-08-20T01:50:42.831Z,1.13
2022-08-20T01:53:18.136Z,1.40
2022-08-20T01:55:46.159Z,1.65
2022-08-20T01:58:15.433Z,1.50
2022-08-20T02:00:44.057Z,1.20
2022-08-20T02:03:11.978Z,1.42
2022-08-20T02:05:40.025Z,1.75
2022-08-20T02:08:07.860Z,1.30
2022-08-20T02:10:36.041Z,1.27
2022-08-20T02:13:06.195Z,1.65
2022-08-20T02:15:39.694Z,1.50
2022-08-20T02:18:11.239Z,1.38
2022-08-20T02:20:41.839Z,1.55
2022-08-20T02:23:13.736Z,1.63
2022-08-20T02:25:44.699Z,2.00
2022-08-20T02:28:19.826Z,2.20
2022-08-20T02:30:51.853Z,2.00
2022-08-20T02:33:24.428Z,1.30
2022-08-20T02:35:56.460Z,1.98
2022-08-20T02:38:24.671Z,2.00
2022-08-20T02:40:52.522Z,1.83
2022-08-20T02:43:21.556Z,1.65
2022-08-20T02:45:51.566Z,1.90
2022-08-20T02:48:23.101Z,1.70
2022-08-20T02:50:54.551Z,1.92
2022-08-20T02:53:23.363Z,1.60
2022-08-20T02:55:51.665Z,1.85
2022-08-20T02:58:20.580Z,1.60
2022-08-20T03:00:50.339Z,2.05
2022-08-20T03:03:22.740Z,1.48
2022-08-20T03:05:52.932Z,1.50
2022-08-20T03:08:21.677Z,1.67
2022-08-20T03:10:50.185Z,2.05
2022-08-20T03:13:19.751Z,1.70
2022-08-20T03:15:53.285Z,1.80
2022-08-20T03:18:26.402Z,2.00
2022-08-20T03:20:54.386Z,1.73
2022-08-20T03:23:23.149Z,1.60
2022-08-20T03:25:51.077Z,1.75
2022-08-20T03:28:19.772Z,2.40
2022-08-20T03:30:48.392Z,1.92
2022-08-20T03:33:17.695Z,1.95
2022-08-20T03:35:45.512Z,1.65
2022-08-20T03:38:15.507Z,1.80
2022-08-20T03:40:44.035Z,2.20
2022-08-20T03:43:12.427Z,2.17
2022-08-20T03:45:43.843Z,2.42
2022-08-20T03:48:18.706Z,2.42
2022-08-20T03:50:48.043Z,2.08
2022-08-20T03:53:17.309Z,2.17
2022-08-20T03:55:54.191Z,2.08
2022-08-20T03:58:34.772Z,2.60
2022-08-20T04:01:04.989Z,2.10
2022-08-20T04:03:34.316Z,1.77
2022-08-20T04:06:02.230Z,2.38
2022-08-20T04:08:31.025Z,1.90
2022-08-20T04:10:59.753Z,2.15
2022-08-20T04:13:31.420Z,2.10
2022-08-20T04:16:02.277Z,2.05
2022-08-20T04:18:30.897Z,2.53
2022-08-20T04:21:00.142Z,2.10
2022-08-20T04:23:28.118Z,2.17
2022-08-20T04:25:56.492Z,1.80
2022-08-20T04:28:27.241Z,1.90
2022-08-20T04:30:55.317Z,2.17
2022-08-20T04:33:34.205Z,2.33
2022-08-20T04:36:06.290Z,2.60
2022-08-20T04:38:50.466Z,2.28
2022-08-20T04:41:22.906Z,1.92
2022-08-20T04:43:53.093Z,2.15
2022-08-20T04:46:21.906Z,2.08
2022-08-20T04:48:50.349Z,2.35
2022-08-20T04:51:22.866Z,1.73
2022-08-20T04:53:53.909Z,2.30
2022-08-20T04:56:24.297Z,2.80
2022-08-20T04:58:53.919Z,2.30
2022-08-20T05:01:22.165Z,2.08
2022-08-20T05:03:53.573Z,2.08
2022-08-20T05:06:25.513Z,2.25
2022-08-20T05:08:53.614Z,2.40
2022-08-20T05:11:34.024Z,1.95
2022-08-20T05:14:03.202Z,1.92
2022-08-20T05:16:37.546Z,2.33
2022-08-20T05:19:05.403Z,2.50
2022-08-20T05:21:34.537Z,2.50
2022-08-20T05:24:02.893Z,2.05
2022-08-20T05:26:31.101Z,2.38
2022-08-20T05:28:59.614Z,2.13
2022-08-20T05:31:31.755Z,2.28
2022-08-20T05:34:01.349Z,2.45
2022-08-20T05:36:29.311Z,1.60
2022-08-20T05:38:58.876Z,2.60
2022-08-20T05:41:30.297Z,2.22
2022-08-20T05:44:01.013Z,2.20
2022-08-20T05:46:28.985Z,2.50
2022-08-20T05:48:59.817Z,2.50
2022-08-20T05:51:28.332Z,1.95
2022-08-20T05:53:58.241Z,2.30
2022-08-20T05:56:30.385Z,2.35
2022-08-20T05:58:59.277Z,2.40
2022-08-20T06:01:27.255Z,2.60
2022-08-20T06:04:12.798Z,2.10
2022-08-20T06:06:46.371Z,2.78
2022-08-20T06:09:14.989Z,2.63
2022-08-20T06:11:44.249Z,2.53
2022-08-20T06:14:12.336Z,2.85
2022-08-20T06:16:56.287Z,2.40
2022-08-20T06:19:26.325Z,2.30
2022-08-20T06:21:56.509Z,2.67
2022-08-20T06:24:24.917Z,2.72
2022-08-20T06:26:58.181Z,2.22
2022-08-20T06:29:26.415Z,2.88
2022-08-20T06:31:54.405Z,2.45
2022-08-20T06:34:22.383Z,2.45
2022-08-20T06:36:50.184Z,3.00
2022-08-20T06:39:18.360Z,2.30
2022-08-20T06:41:46.186Z,3.00
2022-08-20T06:44:15.953Z,2.45
2022-08-20T06:46:45.375Z,2.30
2022-08-20T06:49:13.890Z,2.30
2022-08-20T06:51:41.806Z,3.05
2022-08-20T06:54:12.402Z,2.63
2022-08-20T06:56:40.260Z,2.97
2022-08-20T06:59:08.184Z,2.80
2022-08-20T07:01:37.408Z,2.90
2022-08-20T07:04:07.640Z,2.53
2022-08-20T07:06:35.496Z,2.20
2022-08-20T07:09:03.391Z,2.90
2022-08-20T07:11:31.243Z,2.60
2022-08-20T07:13:59.381Z,2.50
2022-08-20T07:16:27.805Z,2.70
2022-08-20T07:18:58.210Z,2.55
2022-08-20T07:21:26.194Z,2.97
2022-08-20T07:23:54.010Z,2.67
2022-08-20T07:26:21.963Z,2.47
2022-08-20T07:28:49.895Z,2.17
2022-08-20T07:31:35.699Z,2.28
2022-08-20T07:34:05.250Z,2.35
2022-08-20T07:36:34.832Z,1.63
2022-08-20T07:39:06.175Z,1.75
2022-08-20T07:41:34.866Z,1.85
2022-08-20T07:44:02.795Z,2.22
2022-08-20T07:46:31.632Z,1.60
2022-08-20T07:49:00.214Z,2.17
2022-08-20T07:51:31.884Z,1.40
2022-08-20T07:54:00.161Z,1.80
2022-08-20T07:56:28.234Z,1.80
2022-08-20T07:58:59.131Z,1.45
2022-08-20T08:01:30.681Z,1.40
2022-08-20T08:03:59.221Z,1.67
2022-08-20T08:06:33.292Z,1.45
2022-08-20T08:09:05.846Z,1.50
2022-08-20T08:11:36.015Z,1.58
2022-08-20T08:14:06.238Z,1.38
2022-08-20T08:16:35.090Z,2.70
2022-08-20T08:19:05.775Z,2.28
2022-08-20T08:21:35.149Z,1.40
2022-08-20T08:24:03.222Z,1.35
2022-08-20T08:26:32.425Z,1.20
2022-08-20T08:29:00.303Z,1.40
2022-08-20T08:31:28.163Z,1.35
2022-08-20T08:33:56.303Z,1.15
2022-08-20T08:36:27.358Z,0.93
2022-08-20T08:38:56.601Z,3.40
2022-08-20T08:41:31.911Z,3.13
2022-08-20T08:44:08.045Z,2.85
2022-08-20T08:46:41.755Z,1.20
2022-08-20T08:49:13.427Z,1.25
2022-08-20T08:51:46.256Z,1.17
2022-08-20T08:54:17.848Z,1.05
2022-08-20T08:56:49.817Z,1.17
2022-08-20T08:59:19.499Z,1.65
2022-08-20T09:01:54.614Z,1.25
2022-08-20T09:04:25.268Z,1.35
2022-08-20T09:06:54.909Z,1.00
2022-08-20T09:09:29.700Z,0.77
2022-08-20T09:12:05.778Z,0.80
2022-08-20T09:14:34.266Z,0.65
2022-08-20T09:17:02.144Z,1.00
2022-08-20T09:19:30.197Z,0.90
2022-08-20T09:21:58.255Z,1.00
2022-08-20T09:24:27.403Z,1.00
2022-08-20T09:26:55.141Z,1.05
2022-08-20T09:29:22.985Z,1.20
2022-08-20T09:31:51.722Z,1.23
2022-08-20T09:34:20.348Z,0.90
2022-08-20T09:36:48.189Z,1.17
2022-08-20T09:39:15.919Z,0.82
2022-08-20T09:41:45.006Z,1.00
2022-08-20T09:44:12.876Z,1.40
2022-08-20T09:46:40.747Z,0.90
2022-08-20T09:49:08.959Z,1.10
2022-08-20T09:51:38.803Z,1.00
2022-08-20T09:54:07.613Z,1.30
2022-08-20T09:56:36.610Z,0.85
2022-08-20T09:59:05.967Z,0.80
2022-08-20T10:01:34.229Z,0.90
2022-08-20T10:04:02.116Z,1.02
2022-08-20T10:06:32.419Z,0.90
2022-08-20T10:09:04.603Z,1.08
2022-08-20T10:11:32.870Z,0.88
2022-08-20T10:14:00.645Z,0.80
2022-08-20T10:16:30.147Z,1.00
2022-08-20T10:18:58.658Z,1.00
2022-08-20T10:21:26.483Z,0.90
2022-08-20T10:23:54.299Z,1.00
2022-08-20T10:26:22.079Z,0.90
2022-08-20T10:28:49.909Z,1.30
2022-08-20T10:31:17.790Z,0.93
2022-08-20T10:33:46.898Z,1.02
2022-08-20T10:36:16.605Z,0.80
2022-08-20T10:38:45.858Z,1.10
2022-08-20T10:41:13.904Z,1.10
2022-08-20T10:43:41.886Z,1.25
2022-08-20T10:46:09.927Z,1.08
2022-08-20T10:48:38.003Z,1.10
2022-08-20T10:51:07.485Z,1.10
2022-08-20T10:53:36.420Z,0.60
2022-08-20T10:56:04.677Z,0.98
2022-08-20T10:58:37.713Z,0.85
2022-08-20T11:01:08.075Z,1.10
2022-08-20T11:03:36.157Z,0.90
2022-08-20T11:06:04.404Z,0.90
2022-08-20T11:08:35.879Z,0.93
2022-08-20T11:11:05.306Z,1.10
2022-08-20T11:13:33.459Z,1.13
2022-08-20T11:16:02.354Z,1.20
2022-08-20T11:18:30.570Z,0.82
2022-08-20T11:20:58.693Z,0.90
2022-08-20T11:23:27.308Z,1.20
2022-08-20T11:25:56.545Z,0.77
2022-08-20T11:28:31.337Z,0.75
2022-08-20T11:31:00.568Z,1.10
2022-08-20T11:33:28.523Z,0.90
2022-08-20T11:35:56.438Z,0.80
2022-08-20T11:38:24.260Z,0.77
2022-08-20T11:40:52.069Z,0.90
2022-08-20T11:43:21.276Z,0.93
2022-08-20T11:45:53.118Z,0.85
2022-08-20T11:48:21.760Z,0.82
2022-08-20T11:50:50.509Z,0.95
2022-08-20T11:53:18.372Z,0.82
2022-08-20T11:55:47.781Z,0.70
2022-08-20T11:58:15.837Z,0.70
2022-08-20T12:00:45.252Z,0.73
2022-08-20T12:03:13.198Z,0.65
2022-08-20T12:05:43.851Z,0.70
2022-08-20T12:08:27.670Z,0.93
2022-08-20T12:10:57.194Z,0.77
2022-08-20T12:13:47.599Z,0.43
2022-08-20T12:16:14.900Z,0.63
2022-08-20T12:18:42.857Z,0.63
2022-08-20T12:21:10.791Z,0.70
2022-08-20T12:23:38.670Z,0.45
2022-08-20T12:26:07.016Z,0.60
2022-08-20T12:28:34.914Z,0.45
2022-08-20T12:31:02.770Z,0.52
2022-08-20T12:33:32.142Z,0.45
2022-08-20T12:36:00.074Z,0.45
2022-08-20T12:38:27.969Z,0.50
2022-08-20T12:40:55.775Z,0.60
2022-08-20T12:43:25.229Z,0.40
2022-08-20T12:45:53.400Z,0.63
2022-08-20T12:48:21.834Z,1.13
2022-08-20T12:50:52.635Z,0.47
2022-08-20T12:53:20.424Z,0.40
2022-08-20T12:55:48.317Z,0.60
2022-08-20T12:58:16.102Z,0.40
2022-08-20T13:00:51.147Z,0.60
2022-08-20T13:03:21.695Z,0.65
2022-08-20T13:05:51.111Z,0.60
2022-08-20T13:08:19.411Z,0.40
2022-08-20T13:10:47.729Z,0.45
2022-08-20T13:13:20.049Z,0.57
2022-08-20T13:15:49.135Z,0.30
2022-08-20T13:18:17.039Z,0.63
2022-08-20T13:20:45.199Z,0.57
2022-08-20T13:23:14.313Z,0.38
2022-08-20T13:25:42.063Z,0.30
2022-08-20T13:28:09.898Z,0.60
2022-08-20T13:30:38.676Z,0.50
2022-08-20T13:33:06.603Z,0.40
2022-08-20T13:35:34.639Z,0.40
2022-08-20T13:38:02.459Z,0.40
2022-08-20T13:40:31.892Z,0.40
2022-08-20T13:43:04.571Z,0.45
2022-08-20T13:45:34.558Z,0.60
2022-08-20T13:48:02.394Z,0.40
2022-08-20T13:50:30.155Z,0.52
2022-08-20T13:52:58.250Z,0.70
2022-08-20T13:55:28.110Z,0.50
2022-08-20T13:57:58.793Z,0.70
2022-08-20T14:00:31.000Z,0.43
2022-08-20T14:02:59.912Z,0.70
2022-08-20T14:05:27.734Z,0.32
2022-08-20T14:07:55.774Z,0.43
2022-08-20T14:10:31.223Z,0.50
2022-08-20T14:13:03.281Z,0.45
2022-08-20T14:15:32.170Z,0.38
2022-08-20T14:18:00.038Z,0.50
2022-08-20T14:20:31.983Z,0.63
2022-08-20T14:23:01.385Z,0.40
2022-08-20T14:25:30.908Z,0.63
2022-08-20T14:28:00.707Z,0.40
2022-08-20T14:30:30.680Z,0.45
2022-08-20T14:32:58.634Z,0.40
2022-08-20T14:35:26.746Z,0.70
2022-08-20T14:37:56.479Z,0.47
2022-08-20T14:40:26.943Z,0.52
2022-08-20T14:42:55.680Z,0.75
2022-08-20T14:45:25.394Z,0.50
2022-08-20T14:47:57.078Z,0.50
2022-08-20T14:50:27.459Z,0.52
2022-08-20T14:52:56.274Z,0.40
2022-08-20T14:55:26.641Z,0.60
2022-08-20T14:57:55.155Z,0.65
2022-08-20T15:00:27.806Z,0.43
2022-08-20T15:02:56.320Z,0.52
2022-08-20T15:05:24.348Z,0.35
2022-08-20T15:07:54.146Z,0.40
2022-08-20T15:10:25.233Z,0.40
2022-08-20T15:12:53.607Z,0.60
2022-08-20T15:15:22.026Z,0.30
2022-08-20T15:17:53.172Z,0.43
2022-08-20T15:20:23.984Z,0.52
2022-08-20T15:22:52.208Z,0.50
2022-08-20T15:25:23.232Z,0.40
2022-08-20T15:27:51.584Z,0.40
2022-08-20T15:30:21.641Z,0.57
2022-08-20T15:32:54.834Z,0.57
2022-08-20T15:35:27.051Z,0.40
2022-08-20T15:37:57.098Z,0.40
2022-08-20T15:40:28.429Z,0.25
2022-08-20T15:42:57.179Z,0.30
2022-08-20T15:45:26.795Z,0.45
2022-08-20T15:48:01.278Z,0.50
2022-08-20T15:50:49.322Z,0.50
2022-08-20T15:53:22.987Z,0.60
2022-08-20T15:55:58.585Z,0.38
2022-08-20T15:58:37.002Z,0.30
2022-08-20T16:01:24.237Z,0.38
2022-08-20T16:04:20.153Z,0.35
2022-08-20T16:06:51.092Z,0.40
2022-08-20T16:09:39.586Z,0.40
2022-08-20T16:12:11.211Z,0.40
2022-08-20T16:14:41.974Z,0.50
2022-08-20T16:17:14.589Z,0.40
2022-08-20T16:19:57.327Z,0.45
2022-08-20T16:22:31.175Z,0.70
2022-08-20T16:24:59.613Z,0.50
2022-08-20T16:27:37.074Z,0.50
2022-08-20T16:30:09.510Z,0.40
2022-08-20T16:32:43.710Z,0.22
2022-08-20T16:35:30.474Z,0.38
2022-08-20T16:38:10.962Z,0.47
2022-08-20T16:40:49.472Z,0.40
2022-08-20T16:43:22.852Z,0.50
2022-08-20T16:45:57.524Z,0.50
2022-08-20T16:48:39.488Z,0.40
2022-08-20T16:51:17.363Z,0.50
2022-08-20T16:53:45.271Z,0.50
2022-08-20T16:56:13.543Z,0.63
2022-08-20T16:58:46.190Z,0.65
2022-08-20T17:01:16.630Z,0.35
2022-08-20T17:03:51.015Z,0.60
2022-08-20T17:06:32.217Z,0.70
2022-08-20T17:09:00.530Z,0.50
2022-08-20T17:11:32.597Z,0.60
2022-08-20T17:14:12.113Z,0.45
2022-08-20T17:16:51.404Z,0.57
2022-08-20T17:19:27.156Z,0.50
2022-08-20T17:21:57.736Z,0.35
2022-08-20T17:24:28.158Z,0.60
2022-08-20T17:27:03.809Z,0.35
2022-08-20T17:29:49.983Z,0.57
2022-08-20T17:32:22.655Z,0.50
2022-08-20T17:34:52.283Z,0.57
2022-08-20T17:37:27.119Z,0.30
2022-08-20T17:40:06.006Z,0.32
2022-08-20T17:42:33.922Z,0.50
2022-08-20T17:45:09.009Z,0.22
2022-08-20T17:47:40.021Z,0.35
2022-08-20T17:50:17.599Z,0.70
2022-08-20T17:52:51.610Z,0.32
2022-08-20T17:55:20.205Z,0.68
2022-08-20T17:57:53.096Z,0.52
2022-08-20T18:00:25.305Z,0.35
2022-08-20T18:03:00.090Z,0.60
2022-08-20T18:05:31.376Z,0.63
2022-08-20T18:08:17.257Z,0.40
2022-08-20T18:10:58.022Z,0.30
2022-08-20T18:13:48.135Z,0.32
2022-08-20T18:16:26.756Z,0.50
2022-08-20T18:18:59.400Z,0.60
2022-08-20T18:21:56.161Z,0.47
2022-08-20T18:24:31.198Z,0.30
2022-08-20T18:27:03.770Z,0.50
2022-08-20T18:29:40.507Z,0.65
2022-08-20T18:32:21.599Z,0.55
2022-08-20T18:34:49.782Z,0.20
2022-08-20T18:37:25.432Z,0.30
2022-08-20T18:40:05.858Z,0.40
2022-08-20T18:42:36.077Z,0.50
2022-08-20T18:45:05.934Z,0.35
2022-08-20T18:47:43.061Z,0.60
2022-08-20T18:50:23.260Z,0.60
2022-08-20T18:52:53.213Z,0.52
2022-08-20T18:55:36.042Z,0.93
2022-08-20T18:58:06.582Z,1.45
2022-08-20T19:00:40.793Z,1.35
2022-08-20T19:03:18.375Z,0.90
2022-08-20T19:06:14.597Z,0.70
2022-08-20T19:08:49.797Z,0.65
2022-08-20T19:12:03.453Z,0.70
2022-08-20T19:14:42.074Z,0.50
2022-08-20T19:17:15.768Z,0.63
2022-08-20T19:19:44.044Z,0.57
2022-08-20T19:22:14.036Z,0.60
2022-08-20T19:24:44.335Z,0.52
2022-08-20T19:27:14.178Z,0.85
2022-08-20T19:29:47.135Z,0.57
2022-08-20T19:32:21.214Z,0.43
2022-08-20T19:34:54.780Z,0.73
2022-08-20T19:37:35.218Z,0.50
2022-08-20T19:40:22.602Z,0.38
2022-08-20T19:42:54.632Z,0.77
2022-08-20T19:45:29.209Z,0.50
2022-08-20T19:48:26.929Z,0.68
2022-08-20T19:51:11.584Z,0.80
2022-08-20T19:53:46.589Z,0.40
2022-08-20T19:56:16.958Z,0.73
2022-08-20T19:58:47.629Z,0.50
2022-08-20T20:01:19.457Z,0.60
2022-08-20T20:03:57.856Z,0.35
2022-08-20T20:06:27.009Z,0.40
2022-08-20T20:08:58.446Z,0.85
2022-08-20T20:11:31.545Z,0.90
2022-08-20T20:14:07.453Z,0.70
2022-08-20T20:16:36.668Z,0.55
2022-08-20T20:19:25.747Z,0.60
2022-08-20T20:22:08.510Z,0.80
2022-08-20T20:24:51.088Z,0.90
2022-08-20T20:27:27.026Z,0.55
2022-08-20T20:30:02.453Z,0.82
2022-08-20T20:32:33.664Z,0.60
2022-08-20T20:35:05.406Z,0.80
2022-08-20T20:37:49.696Z,0.60
2022-08-20T20:40:25.517Z,0.77
2022-08-20T20:43:03.992Z,0.90
2022-08-20T20:45:36.497Z,0.65
2022-08-20T20:48:18.026Z,0.63
2022-08-20T20:50:47.519Z,0.80
2022-08-20T20:53:25.558Z,1.00
2022-08-20T20:56:30.406Z,0.75
2022-08-20T20:59:01.336Z,0.90
2022-08-20T21:01:46.210Z,0.70
2022-08-20T21:04:19.171Z,0.77
2022-08-20T21:06:47.203Z,0.67
2022-08-20T21:09:15.633Z,0.73
2022-08-20T21:11:43.617Z,0.68
2022-08-20T21:14:11.660Z,0.57
2022-08-20T21:16:41.609Z,0.70
2022-08-20T21:19:11.206Z,0.90
2022-08-20T21:21:40.055Z,0.80
2022-08-20T21:24:09.029Z,0.57
2022-08-20T21:26:37.793Z,0.60
2022-08-20T21:29:07.475Z,0.77
2022-08-20T21:31:39.126Z,0.50
2022-08-20T21:34:14.720Z,0.60
2022-08-20T21:36:43.205Z,0.73
2022-08-20T21:39:11.457Z,0.80
2022-08-20T21:41:39.769Z,1.03
2022-08-20T21:44:13.337Z,0.90
2022-08-20T21:46:41.577Z,0.67
2022-08-20T21:49:09.656Z,0.73
2022-08-20T21:51:39.694Z,0.75
2022-08-20T21:54:08.176Z,0.63
2022-08-20T21:56:37.302Z,0.90
2022-08-20T21:59:08.414Z,0.70
2022-08-20T22:01:37.193Z,1.00
2022-08-20T22:04:07.030Z,0.80
2022-08-20T22:06:35.423Z,0.70
2022-08-20T22:09:05.749Z,0.85
2022-08-20T22:11:34.690Z,0.80
2022-08-20T22:14:02.879Z,0.80
2022-08-20T22:16:30.784Z,0.70
2022-08-20T22:18:58.657Z,0.73
2022-08-20T22:21:28.589Z,0.77
2022-08-20T22:24:00.931Z,0.83
2022-08-20T22:26:31.117Z,0.70
2022-08-20T22:29:01.962Z,0.90
2022-08-20T22:31:31.641Z,0.97
2022-08-20T22:33:59.914Z,0.80
2022-08-20T22:36:29.076Z,0.87
2022-08-20T22:38:58.154Z,0.77
2022-08-20T22:41:26.122Z,0.60
2022-08-20T22:43:56.507Z,0.70
2022-08-20T22:46:27.031Z,0.60
2022-08-20T22:48:55.419Z,0.63
2022-08-20T22:51:27.849Z,0.70
2022-08-20T22:53:56.006Z,0.80
2022-08-20T22:56:24.148Z,0.90
2022-08-20T22:58:52.032Z,0.83
2022-08-20T23:01:21.835Z,1.13
2022-08-20T23:03:49.752Z,0.83
2022-08-20T23:06:17.711Z,1.10
2022-08-20T23:08:45.692Z,1.00
2022-08-20T23:11:14.043Z,1.00
2022-08-20T23:13:42.065Z,0.70
2022-08-20T23:16:09.959Z,1.20
2022-08-20T23:18:39.377Z,0.90
2022-08-20T23:21:08.706Z,1.10
2022-08-20T23:23:36.985Z,0.80
2022-08-20T23:26:04.930Z,0.70
2022-08-20T23:28:32.978Z,0.87
2022-08-20T23:31:00.838Z,0.93
2022-08-20T23:33:28.615Z,1.00
2022-08-20T23:35:58.435Z,1.00
2022-08-20T23:38:26.327Z,1.00
2022-08-20T23:40:54.139Z,0.87
2022-08-20T23:43:21.981Z,0.70
2022-08-20T23:45:49.811Z,0.80
2022-08-20T23:48:17.662Z,1.07
2022-08-20T23:50:45.591Z,0.97
2022-08-20T23:53:17.424Z,0.70
2022-08-20T23:55:45.304Z,1.00
2022-08-20T23:58:13.188Z,0.83
